Time;durP1;ratioP1;P1;durP2;ratioP2;P2;SDS_P1;SDS_P2;PMS_P1;PMS_P2;Temp;Humidity;BMP_temperature;BMP_pressure;BME280_temperature;BME280_humidity;BME280_pressure;Samples;Min_cycle;Max_cycle;Signal;HPM_P1;HPM_P2
2023/11/07 00:01:39;;;;;;;0.00;0.00;;;;;;;9.00;70.59;99647.84;7353930;19;20785;-58
2023/11/07 00:04:07;;;;;;;0.00;0.00;;;;;;;9.02;71.08;99651.25;7354158;19;20018;-58
2023/11/07 00:06:32;;;;;;;0.10;0.10;;;;;;;9.03;71.12;99652.09;7352741;19;20106;-58
2023/11/07 00:08:58;;;;;;;0.10;0.10;;;;;;;9.02;70.89;99652.97;7359450;19;20011;-58
2023/11/07 00:11:23;;;;;;;0.10;0.10;;;;;;;8.95;71.31;99649.72;7357693;19;20488;-57
2023/11/07 00:13:50;;;;;;;0.10;0.10;;;;;;;9.00;71.14;99655.63;7360878;19;20014;-58
2023/11/07 00:16:15;;;;;;;0.10;0.10;;;;;;;9.01;70.83;99659.94;7355751;19;20011;-58
2023/11/07 00:18:41;;;;;;;0.00;0.00;;;;;;;9.00;71.17;99662.59;7363458;19;20478;-59
2023/11/07 00:21:07;;;;;;;0.05;0.05;;;;;;;8.95;71.66;99654.94;7359496;19;20034;-58
2023/11/07 00:23:32;;;;;;;0.10;0.10;;;;;;;8.96;71.15;99653.19;7359790;19;20011;-58
2023/11/07 00:25:57;;;;;;;0.10;0.10;;;;;;;8.96;71.48;99664.44;7364506;19;20021;-58
2023/11/07 00:28:25;;;;;;;0.00;0.00;;;;;;;8.96;71.86;99672.25;7364345;19;20007;-58
2023/11/07 00:30:52;;;;;;;0.00;0.00;;;;;;;8.94;71.35;99668.88;7367753;19;20526;-58
2023/11/07 00:33:18;;;;;;;0.10;0.10;;;;;;;8.95;71.30;99673.16;7368267;19;20035;-58
2023/11/07 00:35:43;;;;;;;0.10;0.10;;;;;;;8.92;71.44;99681.09;7366475;19;20032;-57
2023/11/07 00:38:09;;;;;;;0.10;0.10;;;;;;;8.93;71.63;99682.78;7374859;19;20011;-56
2023/11/07 00:40:34;;;;;;;0.00;0.00;;;;;;;8.92;71.55;99675.00;7368953;19;20003;-58
2023/11/07 00:43:00;;;;;;;0.05;0.05;;;;;;;8.93;71.92;99681.94;7365473;19;20006;-59
2023/11/07 00:45:25;;;;;;;0.10;0.10;;;;;;;8.73;71.55;99653.94;7367806;19;20482;-57
2023/11/07 00:47:51;;;;;;;0.00;0.00;;;;;;;8.90;71.90;99682.88;7366206;19;20017;-61
2023/11/07 00:50:16;;;;;;;0.00;0.00;;;;;;;8.81;71.53;99677.97;7360237;19;20112;-58
2023/11/07 00:52:42;;;;;;;0.00;0.00;;;;;;;8.80;71.12;99686.69;7367118;19;20023;-57
2023/11/07 00:55:08;;;;;;;0.00;0.00;;;;;;;8.91;71.45;99702.81;7364785;19;20019;-56
2023/11/07 00:57:33;;;;;;;0.10;0.10;;;;;;;8.90;71.90;99708.91;7365625;19;20011;-58
2023/11/07 00:59:59;;;;;;;0.10;0.10;;;;;;;8.90;71.60;99693.28;7364188;19;20014;-57
2023/11/07 01:02:24;;;;;;;0.10;0.10;;;;;;;8.89;71.95;99707.22;7365647;19;20632;-58
2023/11/07 01:04:50;;;;;;;0.10;0.10;;;;;;;8.88;72.06;99694.25;7366975;19;20017;-58
2023/11/07 01:07:15;;;;;;;0.08;0.08;;;;;;;8.86;71.63;99688.22;7369200;19;20082;-59
2023/11/07 01:09:41;;;;;;;0.10;0.10;;;;;;;8.92;72.08;99704.53;7368885;19;20430;-58
2023/11/07 01:12:08;;;;;;;0.10;0.10;;;;;;;8.95;72.50;99700.97;7368982;19;20002;-58
2023/11/07 01:14:34;;;;;;;0.10;0.10;;;;;;;8.95;72.08;99712.22;7366144;19;20031;-58
2023/11/07 01:16:59;;;;;;;0.10;0.10;;;;;;;8.97;71.87;99715.66;7368573;19;20014;-58
2023/11/07 01:19:24;;;;;;;0.10;0.10;;;;;;;8.98;72.17;99727.75;7363208;19;20014;-58
2023/11/07 01:21:50;;;;;;;0.10;0.10;;;;;;;8.98;72.09;99730.38;7368629;19;20014;-58
2023/11/07 01:24:15;;;;;;;0.10;0.10;;;;;;;9.01;72.38;99725.03;7360625;19;20030;-59
2023/11/07 01:26:41;;;;;;;0.10;0.10;;;;;;;8.99;72.20;99723.41;7371265;19;20832;-58
2023/11/07 01:29:07;;;;;;;0.10;0.10;;;;;;;9.08;72.21;99738.75;7365074;19;20006;-57
2023/11/07 01:31:32;;;;;;;0.10;0.10;;;;;;;9.12;72.67;99742.06;7367656;19;20011;-59
2023/11/07 01:33:59;;;;;;;0.00;0.00;;;;;;;9.17;72.66;99742.78;7347117;19;20025;-58
2023/11/07 01:36:24;;;;;;;0.10;0.10;;;;;;;9.22;72.25;99731.31;7352118;19;20770;-57
2023/11/07 01:38:50;;;;;;;0.05;0.05;;;;;;;9.25;72.80;99719.94;7364419;19;20006;-58
2023/11/07 01:41:15;;;;;;;0.03;0.03;;;;;;;9.29;72.54;99737.19;7367573;19;20010;-57
2023/11/07 01:43:41;;;;;;;0.10;0.10;;;;;;;9.34;72.70;99740.50;7351357;19;20983;-58
2023/11/07 01:46:08;;;;;;;0.10;0.10;;;;;;;9.37;72.66;99748.19;7366867;19;20597;-57
2023/11/07 01:48:34;;;;;;;0.00;0.00;;;;;;;9.30;72.51;99726.72;7366297;19;20015;-57
2023/11/07 01:51:01;;;;;;;0.10;0.10;;;;;;;9.46;72.74;99749.66;7360990;19;20011;-57
2023/11/07 01:53:28;;;;;;;0.10;0.10;;;;;;;9.50;72.48;99746.91;7368587;19;20759;-58
2023/11/07 01:55:54;;;;;;;0.10;0.10;;;;;;;9.54;72.83;99752.88;7364038;19;20010;-59
2023/11/07 01:58:20;;;;;;;0.10;0.10;;;;;;;9.57;73.06;99758.81;7368778;19;20012;-57
2023/11/07 02:00:48;;;;;;;0.10;0.10;;;;;;;9.61;72.53;99760.41;7363018;19;20458;-56
2023/11/07 02:03:13;;;;;;;0.00;0.00;;;;;;;9.62;72.34;99756.88;7363697;19;20645;-59
2023/11/07 02:05:41;;;;;;;0.10;0.10;;;;;;;9.67;72.04;99755.88;7363354;19;20016;-57
2023/11/07 02:08:07;;;;;;;0.10;0.10;;;;;;;9.62;72.18;99751.69;7366238;19;20399;-57
2023/11/07 02:10:33;;;;;;;0.10;0.10;;;;;;;9.62;72.06;99756.88;7368494;19;20017;-59
2023/11/07 02:12:58;;;;;;;0.10;0.10;;;;;;;9.65;72.57;99768.13;7352898;19;20018;-58
2023/11/07 02:15:31;;;;;;;0.10;0.10;;;;;;;9.62;72.18;99767.31;7367175;19;20042;-59
2023/11/07 02:17:57;;;;;;;0.05;0.05;;;;;;;9.59;71.97;99767.44;7368118;19;20018;-58
2023/11/07 02:20:22;;;;;;;0.10;0.10;;;;;;;9.55;72.45;99778.88;7364667;19;20038;-58
2023/11/07 02:22:53;;;;;;;0.00;0.00;;;;;;;9.52;72.16;99780.72;7362922;19;20757;-59
2023/11/07 02:25:19;;;;;;;0.00;0.00;;;;;;;9.53;72.22;99793.72;7357524;19;20027;-58
2023/11/07 02:27:45;;;;;;;0.00;0.00;;;;;;;9.52;72.48;99801.56;7368159;19;20086;-58
2023/11/07 02:30:14;;;;;;;0.10;0.10;;;;;;;9.47;72.36;99788.69;7366110;19;20840;-57
2023/11/07 02:32:40;;;;;;;0.00;0.00;;;;;;;9.48;72.22;99807.78;7362499;19;20574;-56
2023/11/07 02:35:06;;;;;;;0.05;0.05;;;;;;;9.35;72.50;99783.88;7364733;19;20017;-57
2023/11/07 02:37:33;;;;;;;0.10;0.10;;;;;;;9.42;72.35;99789.72;7365506;19;20666;-57
2023/11/07 02:40:01;;;;;;;0.10;0.10;;;;;;;9.47;72.20;99803.47;7364327;19;20027;-58
2023/11/07 02:42:30;;;;;;;0.10;0.10;;;;;;;9.47;72.72;99801.72;7359963;19;20021;-58
2023/11/07 02:44:58;;;;;;;0.10;0.10;;;;;;;9.48;72.61;99793.00;7366539;19;20010;-58
2023/11/07 02:47:25;;;;;;;0.10;0.10;;;;;;;9.45;72.37;99800.91;7364919;19;20017;-58
2023/11/07 02:49:51;;;;;;;0.10;0.10;;;;;;;9.46;72.28;99806.97;7366350;19;20011;-57
2023/11/07 02:52:16;;;;;;;0.08;0.08;;;;;;;9.45;72.75;99811.34;7357331;19;20435;-58
2023/11/07 02:54:42;;;;;;;0.00;0.00;;;;;;;9.45;72.60;99802.69;7363403;19;20010;-59
2023/11/07 02:57:07;;;;;;;0.10;0.10;;;;;;;9.45;72.92;99798.31;7360931;19;20018;-58
2023/11/07 02:59:33;;;;;;;0.10;0.10;;;;;;;9.45;72.76;99798.31;7357010;19;20026;-58
2023/11/07 03:01:58;;;;;;;0.10;0.10;;;;;;;9.44;72.72;99807.03;7362793;19;20022;-58
2023/11/07 03:04:24;;;;;;;0.00;0.00;;;;;;;9.45;72.73;99813.94;7365689;19;20030;-57
2023/11/07 03:06:49;;;;;;;0.10;0.10;;;;;;;9.43;72.76;99802.72;7360763;19;20043;-57
2023/11/07 03:09:15;;;;;;;0.10;0.10;;;;;;;9.40;72.82;99802.81;7364834;19;20010;-59
2023/11/07 03:11:40;;;;;;;0.10;0.10;;;;;;;9.39;72.96;99795.91;7366390;19;20010;-58
2023/11/07 03:14:06;;;;;;;0.10;0.10;;;;;;;9.44;73.02;99812.25;7363636;19;20074;-59
2023/11/07 03:16:33;;;;;;;0.10;0.10;;;;;;;9.46;73.26;99806.97;7363363;19;20010;-57
2023/11/07 03:18:59;;;;;;;;;;;;;;;9.51;72.34;99810.28;7363155;19;20058;-58
2023/11/07 03:21:25;;;;;;;0.10;0.10;;;;;;;9.47;72.62;99808.69;7362748;19;19914;-54
2023/11/07 03:23:50;;;;;;;0.10;0.10;;;;;;;9.49;72.68;99805.13;7360814;19;20023;-57
2023/11/07 03:26:16;;;;;;;0.03;0.03;;;;;;;9.37;72.84;99792.47;7360431;19;20049;-58
2023/11/07 03:28:41;;;;;;;0.10;0.10;;;;;;;9.53;72.83;99819.78;7363781;19;20363;-58
2023/11/07 03:31:06;;;;;;;0.10;0.10;;;;;;;9.54;73.10;99812.81;7358785;19;20010;-58
2023/11/07 03:33:32;;;;;;;0.10;0.10;;;;;;;9.55;73.19;99819.72;7366171;19;20010;-58
2023/11/07 03:35:58;;;;;;;0.10;0.10;;;;;;;9.57;73.21;99826.56;7367363;19;20006;-58
2023/11/07 03:38:23;;;;;;;0.10;0.10;;;;;;;9.60;73.07;99823.88;7357258;19;20031;-58
2023/11/07 03:40:49;;;;;;;0.10;0.10;;;;;;;9.64;73.19;99815.97;7363307;19;20010;-59
2023/11/07 03:43:16;;;;;;;0.10;0.10;;;;;;;9.67;73.30;99816.69;7353309;19;20007;-58
2023/11/07 03:45:41;;;;;;;0.10;0.10;;;;;;;9.70;73.18;99818.38;7368629;19;20740;-55
2023/11/07 03:48:07;;;;;;;0.00;0.00;;;;;;;9.68;73.29;99820.16;7365890;19;20021;-57
2023/11/07 03:50:32;;;;;;;0.10;0.10;;;;;;;9.59;73.29;99809.16;7363148;19;20014;-58
2023/11/07 03:52:57;;;;;;;0.10;0.10;;;;;;;9.68;72.89;99822.75;7362772;19;20021;-58
2023/11/07 03:55:23;;;;;;;0.10;0.10;;;;;;;9.70;73.10;99826.19;7362799;19;20766;-58
2023/11/07 03:57:48;;;;;;;0.10;0.10;;;;;;;9.68;73.11;99831.47;7359423;19;20007;-58
2023/11/07 04:00:14;;;;;;;0.00;0.00;;;;;;;9.70;73.14;99834.00;7362025;19;20701;-57
2023/11/07 04:02:39;;;;;;;0.10;0.10;;;;;;;9.71;73.04;99843.53;7360923;19;20014;-58
2023/11/07 04:05:05;;;;;;;0.10;0.10;;;;;;;9.70;73.07;99852.25;7362876;19;20011;-57
2023/11/07 04:07:31;;;;;;;0.05;0.05;;;;;;;9.68;73.65;99849.72;7360198;19;20430;-58
2023/11/07 04:09:56;;;;;;;0.10;0.10;;;;;;;9.72;73.35;99851.28;7357372;19;20094;-58
2023/11/07 04:12:22;;;;;;;0.10;0.10;;;;;;;9.74;73.17;99846.03;7362249;19;20022;-59
2023/11/07 04:14:48;;;;;;;0.00;0.00;;;;;;;9.72;73.28;99840.00;7361827;19;20020;-58
2023/11/07 04:17:15;;;;;;;0.10;0.10;;;;;;;9.79;73.22;99857.16;7340348;19;20014;-57
2023/11/07 04:19:41;;;;;;;0.10;0.10;;;;;;;9.82;73.56;99857.06;7351030;19;20776;-58
2023/11/07 04:22:07;;;;;;;0.10;0.10;;;;;;;9.78;73.33;99860.66;7355964;19;20815;-58
2023/11/07 04:24:34;;;;;;;0.10;0.10;;;;;;;9.87;73.65;99862.97;7361801;19;20014;-57
2023/11/07 04:27:00;;;;;;;0.10;0.10;;;;;;;9.90;73.43;99865.50;7361769;19;20011;-58
2023/11/07 04:29:26;;;;;;;0.00;0.00;;;;;;;9.94;73.24;99872.31;7360423;19;20017;-58
2023/11/07 04:31:51;;;;;;;0.10;0.10;;;;;;;9.98;73.41;99873.03;7363805;19;20023;-58
2023/11/07 04:34:17;;;;;;;0.10;0.10;;;;;;;9.99;73.57;99880.84;7361399;19;20007;-58
2023/11/07 04:36:43;;;;;;;0.10;0.10;;;;;;;10.02;73.47;99872.03;7362632;19;20006;-57
2023/11/07 04:39:09;;;;;;;0.10;0.10;;;;;;;10.02;73.39;99875.50;7367625;19;20015;-59
2023/11/07 04:41:34;;;;;;;0.00;0.00;;;;;;;10.06;73.26;99871.88;7362313;19;20011;-57
2023/11/07 04:44:02;;;;;;;0.10;0.10;;;;;;;10.08;73.40;99885.72;7357871;19;20049;-58
2023/11/07 04:46:28;;;;;;;0.00;0.00;;;;;;;10.09;73.72;99882.22;7363671;19;20006;-58
2023/11/07 04:48:54;;;;;;;0.00;0.00;;;;;;;10.08;73.49;99888.31;7363196;19;20010;-58
2023/11/07 04:51:20;;;;;;;0.10;0.10;;;;;;;10.11;73.25;99888.25;7360804;19;20086;-59
2023/11/07 04:53:46;;;;;;;0.10;0.10;;;;;;;10.12;73.26;99887.31;7341082;19;20632;-58
2023/11/07 04:56:12;;;;;;;0.05;0.05;;;;;;;10.11;73.33;99893.44;7361158;19;20010;-58
2023/11/07 04:58:37;;;;;;;0.00;0.00;;;;;;;10.11;73.33;99885.63;7358388;19;20014;-59
2023/11/07 05:01:05;;;;;;;0.10;0.10;;;;;;;10.06;73.24;99884.09;7357554;19;20026;-58
2023/11/07 05:03:31;;;;;;;0.10;0.10;;;;;;;10.04;73.58;99884.13;7360315;19;20011;-58
2023/11/07 05:05:58;;;;;;;0.10;0.10;;;;;;;10.08;73.21;99885.72;7359135;19;20513;-57
2023/11/07 05:08:23;;;;;;;0.10;0.10;;;;;;;10.03;72.91;99877.19;7361037;19;20007;-58
2023/11/07 05:10:49;;;;;;;0.08;0.08;;;;;;;10.08;73.39;99890.94;7363509;19;20681;-58
2023/11/07 05:13:14;;;;;;;0.10;0.10;;;;;;;10.05;73.56;99898.88;7358960;19;20364;-57
2023/11/07 05:15:42;;;;;;;0.10;0.10;;;;;;;10.07;73.32;99909.25;7362028;19;20011;-58
2023/11/07 05:18:07;;;;;;;;;;;;;;;10.10;72.30;99909.16;7370740;19;20023;-58
2023/11/07 05:20:33;;;;;;;0.10;0.10;;;;;;;10.02;72.93;99906.78;7368713;19;19926;-57
2023/11/07 05:22:59;;;;;;;0.03;0.03;;;;;;;10.02;73.57;99914.63;7370397;19;20051;-58
2023/11/07 05:25:26;;;;;;;0.10;0.10;;;;;;;10.01;73.34;99920.75;7365786;19;20014;-58
2023/11/07 05:27:51;;;;;;;0.10;0.10;;;;;;;9.97;73.50;99924.34;7366139;19;20027;-58
2023/11/07 05:30:17;;;;;;;0.10;0.10;;;;;;;9.93;73.85;99912.31;7367816;19;20469;-59
2023/11/07 05:32:46;;;;;;;0.00;0.00;;;;;;;9.92;73.44;99920.19;7367982;19;19994;-57
2023/11/07 05:35:12;;;;;;;0.10;0.10;;;;;;;9.90;73.43;99928.06;7364603;19;20035;-57
2023/11/07 05:37:37;;;;;;;0.10;0.10;;;;;;;9.88;73.44;99929.84;7367166;19;20011;-58
2023/11/07 05:40:03;;;;;;;0.10;0.10;;;;;;;9.85;73.60;99927.38;7368631;19;20017;-58
2023/11/07 05:42:30;;;;;;;0.10;0.10;;;;;;;9.77;73.63;99922.38;7363346;19;20022;-58
2023/11/07 05:44:55;;;;;;;0.10;0.10;;;;;;;9.82;73.97;99930.06;7372728;19;20035;-58
2023/11/07 05:47:21;;;;;;;0.10;0.10;;;;;;;9.82;73.55;99930.06;7369929;19;20011;-58
2023/11/07 05:49:46;;;;;;;0.10;0.10;;;;;;;9.80;73.51;99935.34;7361133;19;20090;-59
2023/11/07 05:52:12;;;;;;;0.10;0.10;;;;;;;9.82;73.56;99945.72;7367878;19;20017;-59
2023/11/07 05:54:37;;;;;;;0.00;0.00;;;;;;;9.80;73.85;99947.53;7364891;19;20047;-58
2023/11/07 05:57:03;;;;;;;0.10;0.10;;;;;;;9.81;73.37;99944.84;7368101;19;20010;-58
2023/11/07 05:59:28;;;;;;;0.00;0.00;;;;;;;9.48;73.75;99894.66;7376037;19;20007;-58
2023/11/07 06:01:54;;;;;;;0.00;0.00;;;;;;;9.77;73.71;99948.47;7359028;19;20019;-59
2023/11/07 06:04:33;;;;;;;0.10;0.10;;;;;;;9.80;73.73;99957.94;7362320;19;20022;-58
2023/11/07 06:07:01;;;;;;;0.10;0.10;;;;;;;9.80;73.75;99960.56;7358994;19;20010;-58
2023/11/07 06:09:28;;;;;;;0.10;0.10;;;;;;;9.80;73.78;99957.94;7367220;19;20014;-59
2023/11/07 06:11:54;;;;;;;0.10;0.10;;;;;;;9.79;73.76;99962.31;7364930;19;20018;-58
2023/11/07 06:14:20;;;;;;;0.10;0.10;;;;;;;9.80;73.64;99957.94;7365289;19;20011;-58
2023/11/07 06:16:45;;;;;;;0.10;0.10;;;;;;;9.67;73.47;99940.97;7370084;19;20497;-58
2023/11/07 06:19:11;;;;;;;0.10;0.10;;;;;;;9.81;73.70;99975.28;7361380;19;20010;-58
2023/11/07 06:21:37;;;;;;;0.03;0.03;;;;;;;9.75;73.72;99963.31;7368423;19;20014;-58
2023/11/07 06:24:03;;;;;;;0.05;0.05;;;;;;;9.83;74.19;99976.09;7361134;19;20610;-58
2023/11/07 06:26:29;;;;;;;0.10;0.10;;;;;;;9.85;74.08;99987.34;7364105;19;20003;-59
2023/11/07 06:28:54;;;;;;;0.10;0.10;;;;;;;9.86;73.79;99984.69;7366913;19;20019;-59
2023/11/07 06:31:27;;;;;;;0.10;0.10;;;;;;;9.92;73.93;99991.47;7363276;19;20022;-58
2023/11/07 06:33:53;;;;;;;0.10;0.10;;;;;;;9.90;73.92;100006.31;7367244;19;20038;-59
2023/11/07 06:36:19;;;;;;;0.10;0.10;;;;;;;9.92;73.65;99996.66;7363392;19;20006;-59
2023/11/07 06:38:45;;;;;;;0.00;0.00;;;;;;;9.89;73.89;99988.97;7366953;19;20090;-57
2023/11/07 06:41:11;;;;;;;0.10;0.10;;;;;;;9.94;73.75;100000.09;7365593;19;20541;-58
2023/11/07 06:43:37;;;;;;;0.10;0.10;;;;;;;9.94;73.65;100002.72;7365047;19;20043;-57
2023/11/07 06:46:02;;;;;;;0.00;0.00;;;;;;;9.93;73.39;100003.59;7368088;19;20499;-57
2023/11/07 06:48:28;;;;;;;0.10;0.10;;;;;;;9.95;73.77;100009.63;7364783;19;20021;-58
2023/11/07 06:50:56;;;;;;;0.10;0.10;;;;;;;9.94;73.72;100007.94;7360497;19;20301;-56
2023/11/07 06:53:21;;;;;;;0.00;0.00;;;;;;;9.93;73.97;100011.41;7365850;19;20379;-57
2023/11/07 06:55:47;;;;;;;0.10;0.10;;;;;;;9.92;73.77;100011.47;7370260;19;20006;-58
2023/11/07 06:58:12;;;;;;;0.10;0.10;;;;;;;9.88;73.81;100013.31;7361984;19;20010;-58
2023/11/07 07:00:38;;;;;;;0.10;0.10;;;;;;;9.86;73.37;100010.75;7364139;19;20099;-58
2023/11/07 07:03:04;;;;;;;0.10;0.10;;;;;;;9.80;73.88;100015.31;7361877;19;20049;-58
2023/11/07 07:05:29;;;;;;;0.10;0.10;;;;;;;9.79;73.78;100019.69;7342000;19;20006;-58
2023/11/07 07:07:55;;;;;;;0.10;0.10;;;;;;;9.78;73.99;100027.53;7365269;19;20526;-57
2023/11/07 07:10:22;;;;;;;0.10;0.10;;;;;;;9.75;73.78;100027.63;7362227;19;21031;-57
2023/11/07 07:12:47;;;;;;;0.10;0.10;;;;;;;9.58;73.78;100010.75;7362639;19;20858;-58
2023/11/07 07:15:13;;;;;;;0.10;0.10;;;;;;;9.70;73.65;100034.75;7363643;19;20039;-58
2023/11/07 07:17:39;;;;;;;0.10;0.10;;;;;;;9.66;73.50;100033.13;7360076;19;20024;-58
2023/11/07 07:20:11;;;;;;;0.00;0.00;;;;;;;9.57;73.84;100024.66;7364932;19;20011;-58
2023/11/07 07:22:39;;;;;;;0.10;0.10;;;;;;;9.61;73.88;100041.94;7364765;19;20017;-58
2023/11/07 07:25:05;;;;;;;;;;;;;;;9.66;73.35;100043.56;7362267;19;20025;-59
2023/11/07 07:27:33;;;;;;;0.00;0.00;;;;;;;9.31;73.62;99999.38;7362535;19;19945;-57
2023/11/07 07:29:59;;;;;;;;;;;;;;;9.65;72.97;100049.66;7361640;19;20042;-58
2023/11/07 07:32:26;;;;;;;0.10;0.10;;;;;;;9.61;73.55;100047.13;7354781;19;19923;-58
2023/11/07 07:34:52;;;;;;;0.10;0.10;;;;;;;9.52;73.75;100030.91;7361343;19;20018;-59
2023/11/07 07:37:20;;;;;;;0.10;0.10;;;;;;;9.61;73.99;100056.72;7357178;19;20018;-57
2023/11/07 07:39:52;;;;;;;0.00;0.00;;;;;;;9.59;73.91;100046.34;7359205;19;20483;-58
2023/11/07 07:42:17;;;;;;;0.00;0.00;;;;;;;9.58;73.82;100052.47;7359345;19;20375;-57
2023/11/07 07:44:44;;;;;;;0.10;0.10;;;;;;;9.59;74.07;100048.94;7359364;19;20006;-59
2023/11/07 07:47:10;;;;;;;0.10;0.10;;;;;;;9.59;73.66;100054.16;7359376;19;20127;-57
2023/11/07 07:49:36;;;;;;;0.10;0.10;;;;;;;9.58;73.80;100056.81;7358815;19;20517;-58
2023/11/07 07:52:02;;;;;;;0.10;0.10;;;;;;;9.59;73.80;100059.38;7362731;19;20018;-58
2023/11/07 07:54:29;;;;;;;0.08;0.08;;;;;;;9.47;73.91;100041.47;7360269;19;20052;-57
2023/11/07 07:56:58;;;;;;;0.10;0.10;;;;;;;9.49;73.85;100055.31;7359695;19;20006;-59
2023/11/07 07:59:24;;;;;;;0.13;0.13;;;;;;;9.58;74.28;100077.69;7357926;19;20022;-58
2023/11/07 08:01:55;;;;;;;0.10;0.10;;;;;;;9.48;73.87;100058.84;7355850;19;20078;-58
2023/11/07 08:04:26;;;;;;;0.10;0.10;;;;;;;9.59;74.29;100085.44;7359231;19;20014;-59
2023/11/07 08:06:52;;;;;;;0.00;0.00;;;;;;;9.60;74.33;100087.16;7364309;19;20518;-58
2023/11/07 08:09:19;;;;;;;0.10;0.10;;;;;;;9.60;74.61;100079.31;7362846;19;20043;-58
2023/11/07 08:11:50;;;;;;;0.10;0.10;;;;;;;9.65;73.95;100079.19;7361121;19;20014;-58
2023/11/07 08:14:16;;;;;;;0.10;0.10;;;;;;;9.66;74.37;100095.69;7359573;19;20016;-61
2023/11/07 08:16:43;;;;;;;0.10;0.10;;;;;;;9.63;74.28;100091.44;7364905;19;20019;-58
2023/11/07 08:19:12;;;;;;;0.10;0.10;;;;;;;9.68;74.03;100093.88;7361406;19;20958;-58
2023/11/07 08:21:40;;;;;;;0.10;0.10;;;;;;;9.71;74.08;100110.28;7360233;19;20050;-58
2023/11/07 08:24:07;;;;;;;0.10;0.10;;;;;;;9.71;74.30;100110.28;7353393;19;20014;-57
2023/11/07 08:26:33;;;;;;;0.00;0.00;;;;;;;9.69;73.96;100111.25;7359556;19;20433;-58
2023/11/07 08:29:00;;;;;;;0.00;0.00;;;;;;;9.73;73.89;100118.06;7360332;19;20022;-58
2023/11/07 08:31:26;;;;;;;0.10;0.10;;;;;;;9.73;74.34;100128.50;7356608;19;20501;-59
2023/11/07 08:33:52;;;;;;;0.03;0.03;;;;;;;9.74;74.24;100130.22;7359735;19;20006;-59
2023/11/07 08:36:17;;;;;;;0.10;0.10;;;;;;;9.74;74.22;100131.09;7356084;19;20018;-58
2023/11/07 08:38:45;;;;;;;0.10;0.10;;;;;;;9.66;74.20;100116.53;7358704;19;20387;-58
2023/11/07 08:41:11;;;;;;;;;;;;;;;9.78;73.62;100132.72;7352922;19;20042;-58
2023/11/07 08:43:37;;;;;;;0.10;0.10;;;;;;;9.76;74.13;100136.25;7361933;19;19919;-58
2023/11/07 08:46:02;;;;;;;0.10;0.10;;;;;;;9.78;74.13;100139.66;7361244;19;20017;-58
2023/11/07 08:48:28;;;;;;;0.10;0.10;;;;;;;9.80;74.20;100140.47;7362372;19;20011;-59
2023/11/07 08:50:54;;;;;;;0.10;0.10;;;;;;;9.85;74.48;100154.25;7364934;19;20809;-57
2023/11/07 08:53:19;;;;;;;0.10;0.10;;;;;;;9.87;74.23;100142.84;7363050;19;20069;-58
2023/11/07 08:55:49;;;;;;;0.08;0.08;;;;;;;9.99;74.20;100146.03;7366353;19;20014;-59
2023/11/07 08:58:15;;;;;;;0.10;0.10;;;;;;;10.08;74.51;100141.38;7360606;19;20023;-58
2023/11/07 09:00:43;;;;;;;0.00;0.00;;;;;;;10.22;74.65;100137.50;7367011;19;20128;-59
2023/11/07 09:03:08;;;;;;;0.10;0.10;;;;;;;10.38;74.52;100142.22;7361623;19;20006;-59
2023/11/07 09:05:34;;;;;;;0.10;0.10;;;;;;;10.57;74.19;100149.50;7368491;19;21225;-58
2023/11/07 09:08:00;;;;;;;0.10;0.10;;;;;;;10.72;74.34;100137.72;7373287;19;20019;-58
2023/11/07 09:10:26;;;;;;;0.10;0.10;;;;;;;10.96;74.11;100142.16;7367715;19;20025;-59
2023/11/07 09:12:51;;;;;;;0.00;0.00;;;;;;;11.14;73.99;100146.72;7368399;19;20007;-58
2023/11/07 09:15:19;;;;;;;0.00;0.00;;;;;;;11.39;73.49;100158.97;7365816;19;20491;-58
2023/11/07 09:17:45;;;;;;;0.08;0.08;;;;;;;11.60;73.17;100160.81;7366949;19;20007;-59
2023/11/07 09:20:14;;;;;;;0.10;0.10;;;;;;;11.67;73.15;100135.31;7366824;19;20021;-58
2023/11/07 09:22:43;;;;;;;0.10;0.10;;;;;;;12.04;73.21;100160.16;7366234;19;20017;-59
2023/11/07 09:25:09;;;;;;;0.10;0.10;;;;;;;12.21;72.92;100162.97;7367594;19;20506;-59
2023/11/07 09:27:36;;;;;;;0.10;0.10;;;;;;;12.38;72.17;100178.06;7358220;19;20006;-59
2023/11/07 09:30:04;;;;;;;0.10;0.10;;;;;;;12.56;71.92;100169.47;7366847;19;20075;-59
2023/11/07 09:32:30;;;;;;;0.10;0.10;;;;;;;12.73;71.37;100177.53;7365951;19;20031;-59
2023/11/07 09:34:57;;;;;;;0.10;0.10;;;;;;;12.91;71.54;100175.94;7362808;19;20019;-58
2023/11/07 09:37:23;;;;;;;0.10;0.10;;;;;;;13.12;71.75;100179.44;7365095;19;20011;-59
2023/11/07 09:39:48;;;;;;;0.15;0.15;;;;;;;13.29;71.15;100177.94;7365629;19;20023;-56
2023/11/07 09:42:14;;;;;;;0.10;0.10;;;;;;;13.44;70.33;100172.88;7362313;19;20011;-58
2023/11/07 09:44:39;;;;;;;0.10;0.10;;;;;;;13.57;70.49;100169.72;7363979;19;20015;-59
2023/11/07 09:47:06;;;;;;;0.10;0.10;;;;;;;13.81;70.41;100184.41;7363699;19;20002;-59
2023/11/07 09:49:35;;;;;;;0.10;0.10;;;;;;;13.92;69.90;100165.53;7366792;19;20829;-59
2023/11/07 09:52:05;;;;;;;0.10;0.10;;;;;;;14.13;70.03;100169.81;7365237;19;20010;-56
2023/11/07 09:54:32;;;;;;;0.10;0.10;;;;;;;14.16;69.32;100159.19;7362270;19;20029;-59
2023/11/07 09:57:08;;;;;;;0.10;0.10;;;;;;;14.44;69.22;100184.16;7357637;19;20006;-57
2023/11/07 09:59:37;;;;;;;0.10;0.10;;;;;;;14.55;69.43;100187.19;7368250;19;20045;-56
2023/11/07 10:02:07;;;;;;;0.10;0.10;;;;;;;14.68;68.53;100190.91;7365698;19;20011;-59
2023/11/07 10:04:34;;;;;;;0.10;0.10;;;;;;;14.76;68.29;100186.16;7361820;19;20015;-59
2023/11/07 10:06:59;;;;;;;0.10;0.10;;;;;;;14.91;68.12;100188.97;7366565;19;20021;-59
2023/11/07 10:09:26;;;;;;;0.10;0.10;;;;;;;15.10;68.10;100200.25;7366649;19;20089;-58
2023/11/07 10:11:53;;;;;;;0.03;0.03;;;;;;;15.26;67.11;100201.22;7371666;19;20421;-57
2023/11/07 10:14:20;;;;;;;0.10;0.10;;;;;;;15.42;67.05;100200.44;7362929;19;20121;-58
2023/11/07 10:16:50;;;;;;;0.10;0.10;;;;;;;15.64;66.92;100202.84;7365948;19;20040;-58
2023/11/07 10:19:22;;;;;;;0.10;0.10;;;;;;;15.75;67.08;100200.50;7364573;19;20006;-59
2023/11/07 10:21:48;;;;;;;0.10;0.10;;;;;;;15.77;65.83;100201.31;7363901;19;20119;-59
2023/11/07 10:24:14;;;;;;;0.10;0.10;;;;;;;15.81;65.76;100198.44;7359554;19;20022;-59
2023/11/07 10:26:50;;;;;;;0.10;0.10;;;;;;;15.95;66.58;100199.47;7365015;19;20071;-58
2023/11/07 10:29:16;;;;;;;0.10;0.10;;;;;;;15.98;65.44;100204.59;7362453;19;20023;-58
2023/11/07 10:31:42;;;;;;;0.10;0.10;;;;;;;16.12;66.24;100203.84;7363451;19;20015;-59
2023/11/07 10:34:15;;;;;;;0.10;0.10;;;;;;;16.31;66.36;100200.13;7354172;19;20804;-58
2023/11/07 10:36:43;;;;;;;0.10;0.10;;;;;;;16.34;64.52;100201.75;7364527;19;20010;-58
2023/11/07 10:39:21;;;;;;;0.10;0.10;;;;;;;16.64;65.60;100204.50;7366690;19;20018;-59
2023/11/07 10:41:47;;;;;;;0.10;0.10;;;;;;;16.73;63.52;100204.03;7363483;19;20816;-59
2023/11/07 10:44:29;;;;;;;0.10;0.10;;;;;;;17.02;66.16;100202.34;7365524;19;20176;-59
2023/11/07 10:47:00;;;;;;;0.10;0.10;;;;;;;17.14;62.93;100203.44;7365513;19;20018;-59
2023/11/07 10:49:26;;;;;;;0.10;0.10;;;;;;;17.26;61.90;100197.44;7361907;19;20018;-56
2023/11/07 10:51:54;;;;;;;0.10;0.10;;;;;;;17.47;62.36;100197.13;7362140;19;20071;-59
2023/11/07 10:54:20;;;;;;;0.10;0.10;;;;;;;17.62;61.41;100210.25;7366459;19;20010;-59
2023/11/07 10:56:48;;;;;;;0.10;0.10;;;;;;;17.82;60.85;100209.09;7363591;19;20018;-58
2023/11/07 10:59:22;;;;;;;0.10;0.10;;;;;;;18.06;62.61;100198.81;7354018;19;20738;-58
2023/11/07 11:01:51;;;;;;;0.10;0.10;;;;;;;18.24;60.98;100198.63;7332144;19;20601;-58
2023/11/07 11:04:26;;;;;;;0.10;0.10;;;;;;;18.42;62.15;100206.25;7360710;19;20019;-58
2023/11/07 11:07:00;;;;;;;0.10;0.10;;;;;;;18.53;60.04;100207.38;7355217;19;20034;-59
2023/11/07 11:09:27;;;;;;;0.10;0.10;;;;;;;18.69;58.48;100208.09;7366444;19;20033;-57
2023/11/07 11:11:57;;;;;;;0.10;0.10;;;;;;;18.87;57.92;100206.09;7359830;19;20384;-59
2023/11/07 11:14:23;;;;;;;0.10;0.10;;;;;;;18.92;57.25;100194.25;7360343;19;20003;-58
2023/11/07 11:16:50;;;;;;;0.10;0.10;;;;;;;19.03;57.03;100200.63;7361768;19;20707;-58
2023/11/07 11:19:34;;;;;;;0.10;0.10;;;;;;;19.21;58.44;100212.66;7358654;19;20011;-59
2023/11/07 11:22:14;;;;;;;0.10;0.10;;;;;;;19.33;59.03;100208.34;7361801;19;20443;-58
2023/11/07 11:24:45;;;;;;;0.10;0.10;;;;;;;19.37;56.58;100205.38;7360414;19;20014;-59
2023/11/07 11:27:23;;;;;;;0.10;0.10;;;;;;;19.50;58.68;100204.56;7367529;19;20017;-57
2023/11/07 11:29:51;;;;;;;0.10;0.10;;;;;;;19.51;56.32;100198.28;7363201;19;20074;-59
2023/11/07 11:32:27;;;;;;;0.10;0.10;;;;;;;19.73;58.26;100195.94;7363649;19;20600;-59
2023/11/07 11:35:11;;;;;;;0.00;0.00;;;;;;;19.85;57.14;100203.03;7358852;19;20014;-58